DATE METEO

IERI
Time Temp. Dewp. Hum. Wind dir Wind speed Wind gust Bar. 1h Prec. 24h Prec.
00:07 14.4 9.8 74 270 1.7 2.5 1026.8 0.0000 0.0000
00:16 14.3 9.9 75 270 1.9 2.8 1026.8 0.0000 0.0000
00:26 14.1 9.7 75 270 1.7 2.5 1026.8 0.0000 0.0000
00:36 14 9.6 75 276 1.9 2.8 1026.7 0.0000 0.0000
00:47 13.8 9.5 75 270 1.9 3.3 1026.6 0.0000 0.0000
00:57 13.7 9.6 76 270 1.9 2.8 1026.6 0.0000 0.0000
01:06 13.6 9.6 77 264 1.4 2.2 1026.7 0.0000 0.0000
01:17 13.5 9.7 78 262 1.7 2.8 1026.7 0.0000 0.0000
01:27 13.4 9.6 78 262 1.7 2.5 1026.7 0.0000 0.0000
01:37 13.3 9.4 77 270 1.7 2.5 1026.6 0.0000 0.0000
01:47 13.1 9.2 77 270 1.7 2.8 1026.6 0.0000 0.0000
01:57 13 9.1 77 264 1.7 3.1 1026.6 0.0000 0.0000
02:07 12.9 9 77 270 1.7 2.8 1026.5 0.0000 0.0000
02:17 12.8 9.1 78 264 1.4 2.8 1026.5 0.0000 0.0000
02:28 12.7 9 78 270 1.7 3.3 1026.4 0.0000 0.0000
02:38 12.5 8.6 77 270 1.7 2.8 1026.4 0.0000 0.0000
02:47 12.4 8.7 78 275 1.7 3.1 1026.5 0.0000 0.0000
02:57 12.3 8.6 78 275 1.7 2.8 1026.4 0.0000 0.0000
03:08 12.2 8.5 78 270 1.7 2.5 1026.4 0.0000 0.0000
03:18 12 8.3 78 270 1.7 2.5 1026.4 0.0000 0.0000
03:28 11.9 8.4 79 270 1.7 2.8 1026.4 0.0000 0.0000
03:38 11.8 8.3 79 270 1.4 2.8 1026.4 0.0000 0.0000
03:48 11.7 8.2 79 264 1.4 2.5 1026.3 0.0000 0.0000
03:58 11.5 8 79 263 1.7 2.5 1026.4 0.0000 0.0000
04:08 11.4 7.9 79 270 1.7 2.5 1026.3 0.0000 0.0000
04:19 11.3 7.8 79 270 1.4 2.5 1026.4 0.0000 0.0000
04:28 11.2 7.9 80 270 1.4 2.5 1026.4 0.0000 0.0000
04:38 11.2 7.7 79 278 1.7 3.3 1026.4 0.0000 0.0000
04:49 11.1 7.8 80 270 1.7 2.5 1026.4 0.0000 0.0000
04:59 11 7.7 80 270 1.4 2.5 1026.4 0.0000 0.0000
05:09 10.8 7.3 79 276 1.7 2.5 1026.4 0.0000 0.0000
05:18 10.8 7.5 80 270 1.4 2.2 1026.3 0.0000 0.0000
05:29 10.7 7.4 80 270 1.7 2.5 1026.4 0.0000 0.0000
05:39 10.6 7.3 80 270 1.4 2.5 1026.4 0.0000 0.0000
05:49 10.5 7.2 80 270 1.4 2.2 1026.5 0.0000 0.0000
05:59 10.5 7.2 80 270 1.4 3.1 1026.6 0.0000 0.0000
06:09 10.4 7.1 80 270 1.4 2.8 1026.5 0.0000 0.0000
06:19 10.3 7 80 263 1.4 2.5 1026.6 0.0000 0.0000
06:29 10.3 7.2 81 258 1.4 2.2 1026.7 0.0000 0.0000
06:40 10.3 7.2 81 259 1.4 2.5 1026.7 0.0000 0.0000
06:50 10.4 7.5 82 270 1.4 2.5 1026.8 0.0000 0.0000
06:59 10.4 7.6 83 263 1.4 2.5 1026.8 0.0000 0.0000
07:09 10.5 7.7 83 257 1.1 2.2 1026.9 0.0000 0.0000
07:20 10.6 8 84 251 1.4 2.2 1027 0.0000 0.0000
07:30 10.8 8.4 85 270 1.4 3.1 1027.1 0.0000 0.0000
07:40 11.1 9 87 282 1.7 2.8 1027.2 0.0000 0.0000
07:50 11.4 9.5 88 291 1.7 3.1 1027.2 0.0000 0.0000
08:00 11.8 10 89 324 1.9 3.1 1027.3 0.0000 0.0000
08:10 12.1 10.3 89 326 1.9 3.9 1027.4 0.0000 0.0000
08:20 12.4 10.6 89 325 1.7 2.8 1027.4 0.0000 0.0000
08:31 12.8 11 89 330 1.7 2.5 1027.5 0.0000 0.0000
08:40 13.1 11.3 89 290 1.1 3.1 1027.6 0.0000 0.0000
08:50 13.6 11.7 88 287 1.4 2.5 1027.6 0.0000 0.0000
09:01 13.8 11.5 86 315 1.4 2.2 1027.7 0.0000 0.0000
09:11 14 11.5 85 305 1.4 2.8 1027.7 0.0000 0.0000
09:21 14.3 11.8 85 288 1.4 2.8 1027.7 0.0000 0.0000
09:30 14.5 11.8 84 251 1.4 2.8 1027.7 0.0000 0.0000
09:41 15.1 12.2 83 270 1.4 2.5 1027.9 0.0000 0.0000
09:51 15.5 12.1 80 278 1.4 2.5 1027.8 0.0000 0.0000
10:01 15.5 11.7 78 282 1.7 2.8 1027.9 0.0000 0.0000
10:12 15.5 11.9 79 278 1.4 2.5 1027.9 0.0000 0.0000
10:21 15.5 11.9 79 288 1.7 3.6 1027.8 0.0000 0.0000
10:31 15.8 12.2 79 258 4.2 8.1 1027.8 0.0000 0.0000
10:41 16 11.8 76 258 4.2 9.4 1027.8 0.0000 0.0000
10:52 16.1 11.7 75 272 4.4 7.2 1027.8 0.0000 0.0000
11:02 16.4 11.8 74 305 2.8 5.3 1027.7 0.0000 0.0000
11:11 16.7 11.6 72 30 2.2 5.3 1027.8 0.0000 0.0000
11:22 17 11.9 72 6 2.2 4.2 1027.8 0.0000 0.0000
11:32 17.2 11.7 70 355 2.5 5 1027.7 0.0000 0.0000
11:42 17.5 12 70 17 2.2 5.3 1027.8 0.0000 0.0000
11:52 17.5 11.3 67 283 3.3 8.1 1027.8 0.0000 0.0000
12:02 17.7 11.9 69 357 2.2 8.1 1027.8 0.0000 0.0000
12:13 18.1 12.1 68 352 2.2 9.4 1027.8 0.0000 0.0000
12:23 18.3 11.8 66 343 2.5 4.4 1027.7 0.0000 0.0000
12:33 18.7 12.2 66 315 2.2 4.4 1027.6 0.0000 0.0000
12:44 19.2 12 63 308 2.8 6.9 1027.6 0.0000 0.0000
12:53 19.6 12.1 62 319 2.5 4.7 1027.6 0.0000 0.0000
13:03 19.4 11.9 62 8 2.5 5 1027.5 0.0000 0.0000
13:14 19.9 12.2 61 329 2.8 5.3 1027.5 0.0000 0.0000
13:24 20.3 12 59 306 2.2 5.3 1027.4 0.0000 0.0000
13:34 20.3 12 59 331 2.2 4.4 1027.4 0.0000 0.0000
13:43 20.6 12.1 58 315 2.2 4.7 1027.3 0.0000 0.0000
13:54 21.2 12.6 58 296 2.8 6.9 1027.3 0.0000 0.0000
14:04 21.7 12.5 56 291 2.8 5.8 1027.3 0.0000 0.0000
14:14 22 12.3 54 290 3.1 5.6 1027.2 0.0000 0.0000
14:24 22.3 12.3 53 289 2.5 5 1027.2 0.0000 0.0000
14:34 22.1 12.1 53 291 2.8 5 1027.1 0.0000 0.0000
14:44 22.6 13.1 55 288 3.1 5 1027.1 0.0000 0.0000
14:54 22.5 12.7 54 317 2.5 5.6 1027.1 0.0000 0.0000
15:05 22.1 12.6 55 327 2.5 7.2 1026.9 0.0000 0.0000
15:15 22.3 12.6 54 319 2.5 5 1026.9 0.0000 0.0000
15:24 22.3 12.6 54 300 2.8 7.5 1026.8 0.0000 0.0000
15:35 22.5 13.3 56 290 2.8 5 1026.9 0.0000 0.0000
15:45 22.4 12.1 52 287 3.1 5.8 1026.9 0.0000 0.0000
15:55 22.5 12.5 53 292 2.8 6.7 1026.8 0.0000 0.0000
16:05 22.1 12.4 54 344 2.5 5.6 1026.8 0.0000 0.0000
16:15 22.4 12.4 53 301 2.8 6.1 1026.6 0.0000 0.0000
16:25 22.4 12.6 54 285 3.1 8.3 1026.6 0.0000 0.0000
16:35 22.4 12.6 54 308 2.8 5.3 1026.5 0.0000 0.0000
16:45 22.4 12.6 54 316 2.5 5.3 1026.4 0.0000 0.0000
16:56 22.5 12.7 54 289 3.1 5.3 1026.4 0.0000 0.0000
17:05 22.3 12.6 54 305 3.1 5.3 1026.3 0.0000 0.0000
17:15 22.2 12.5 54 293 3.3 6.1 1026.2 0.0000 0.0000
17:26 22.4 12.6 54 275 3.1 11.1 1026.2 0.0000 0.0000
17:36 22.2 12.5 54 295 3.3 5.6 1026.1 0.0000 0.0000
17:46 22.2 11.9 52 288 3.1 5.8 1026.1 0.0000 0.0000
17:55 22.1 12.4 54 302 3.1 5.3 1026.1 0.0000 0.0000
18:06 22.2 12.5 54 297 2.8 4.4 1026.1 0.0000 0.0000
18:16 22.1 12.4 54 288 2.8 5.3 1026 0.0000 0.0000
18:26 22.2 12.5 54 286 3.3 6.7 1025.9 0.0000 0.0000
18:37 22.3 12.6 54 294 3.1 5.8 1025.9 0.0000 0.0000
18:46 22.3 12.8 55 299 3.1 5.8 1025.8 0.0000 0.0000
18:56 22.2 12.5 54 297 3.1 5 1025.7 0.0000 0.0000
19:06 22.3 12.6 54 297 3.1 5.6 1025.6 0.0000 0.0000
19:18 22.3 12.6 54 316 2.2 8.1 1025.5 0.0000 0.0000
19:28 22.1 12.4 54 346 2.2 3.9 1025.5 0.0000 0.0000
19:38 22 12.3 54 337 2.5 4.4 1025.5 0.0000 0.0000
19:48 22 12.3 54 290 3.3 8.6 1025.4 0.0000 0.0000
19:59 21.8 12.4 55 261 4.2 6.4 1025.4 0.0000 0.0000
20:08 21.7 12.3 55 298 1.9 3.6 1025.4 0.0000 0.0000
20:18 21.5 12.6 57 310 1.7 2.5 1025.4 0.0000 0.0000
20:28 21.1 12.3 57 291 1.7 2.8 1025.4 0.0000 0.0000
20:39 20.9 12.3 58 294 1.7 3.1 1025.4 0.0000 0.0000
20:49 20.6 12.3 59 292 1.7 3.1 1025.4 0.0000 0.0000
20:58 20.3 12 59 289 1.7 3.1 1025.5 0.0000 0.0000
21:09 19.9 12.2 61 285 1.4 2.5 1025.4 0.0000 0.0000
21:19 19.7 12 61 283 1.4 2.8 1025.5 0.0000 0.0000
21:29 19.4 11.9 62 281 1.4 3.1 1025.5 0.0000 0.0000
21:39 19.2 11.8 62 277 1.4 2.8 1025.4 0.0000 0.0000
21:49 18.9 11.5 62 278 1.7 3.1 1025.5 0.0000 0.0000
21:59 18.7 11.5 63 278 1.7 2.8 1025.5 0.0000 0.0000
22:09 18.4 11.2 63 278 1.7 2.5 1025.6 0.0000 0.0000
22:20 18.2 11.3 64 276 1.7 2.8 1025.6 0.0000 0.0000
22:30 17.9 11 64 270 1.7 2.8 1025.7 0.0000 0.0000
22:39 17.7 11 65 270 1.9 3.1 1025.7 0.0000 0.0000
22:49 17.4 10.8 65 270 1.7 2.8 1025.6 0.0000 0.0000
23:00 17.1 10.7 66 277 1.9 3.6 1025.5 0.0000 0.0000
23:10 16.9 10.5 66 277 1.9 3.3 1025.5 0.0000 0.0000
23:20 16.7 10.5 67 276 1.9 3.1 1025.5 0.0000 0.0000
23:30 16.5 10.4 67 270 1.7 2.5 1025.5 0.0000 0.0000
23:40 16.3 10.4 68 270 1.9 3.3 1025.5 0.0000 0.0000
23:50 16.1 10.2 68 270 1.9 3.3 1025.4 0.0000 0.0000

STATISTICILE ZILEI

2020-07-12
TEMPERATURA
MEDIA
16.8
MAXIM
22.6
14:44
MINIM
10.3
06:19
PRESIUNEA
MEDIA
1026.6
MAXIM
1027.9
09:41
MINIM
1025.4
19:48
PUNCTUL DE ROUĂ
MEDIA
10.8
MAXIM
13.3
15:35
MINIM
7.0
06:19
UMIDITATEA
MEDIA
69
MAXIM
89
08:00
MINIM
52
15:45
WIND SPEED
MEDIA
2.1
MAXIM
4.4
10:52
WIND GUST
MEDIA
4.1
MAXIM
11.1
17:26
WIND DIRECTION
PREVAILING
W
67.6%
N
6.3
NE
0.7
E
0.0
SE
0.0
S
0.0
SW
0.0
W
67.6
NW
25.4
PRECIPITATION
RAIN HOUR
0.0
RAIN DAY
0.0
TEMPERATURA (°C)
MINIM
10.3
MAXIM
22.6
MEDIA
16.8
PRESIUNEA (hpa)
MINIM
1025.4
MAXIM
1027.9
MEDIA
1026.6
STATIA METEO